createdAt,value
2019-04-21T00:00:58.630Z,58.02
2019-04-21T00:01:56.390Z,58.10
2019-04-21T00:02:55.384Z,59.02
2019-04-21T00:04:02.489Z,58.31
2019-04-21T00:05:16.458Z,59.17
2019-04-21T00:07:16.010Z,58.67
2019-04-21T00:08:27.830Z,58.78
2019-04-21T00:09:18.187Z,58.34
2019-04-21T00:10:13.566Z,58.51
2019-04-21T00:11:18.513Z,58.88
2019-04-21T00:12:13.996Z,58.84
2019-04-21T00:13:12.411Z,58.59
2019-04-21T00:14:05.724Z,58.41
2019-04-21T00:15:06.360Z,57.82
2019-04-21T00:16:00.267Z,58.43
2019-04-21T00:17:02.803Z,58.70
2019-04-21T00:18:00.331Z,59.11
2019-04-21T00:19:01.163Z,58.58
2019-04-21T00:20:05.507Z,58.84
2019-04-21T00:21:08.244Z,58.47
2019-04-21T00:22:07.704Z,58.76
2019-04-21T00:23:13.051Z,58.64
2019-04-21T00:24:05.921Z,58.60
2019-04-21T00:25:11.817Z,58.62
2019-04-21T00:26:04.028Z,58.80
2019-04-21T00:27:14.192Z,58.47
2019-04-21T00:28:17.029Z,58.33
2019-04-21T00:29:16.444Z,58.92
2019-04-21T00:30:17.870Z,58.66
2019-04-21T00:31:12.659Z,58.62
2019-04-21T00:32:11.473Z,59.44
2019-04-21T00:33:04.597Z,59.29
2019-04-21T00:33:55.075Z,59.44
2019-04-21T00:35:02.518Z,59.35
2019-04-21T00:36:00.760Z,58.97
2019-04-21T00:37:07.042Z,59.06
2019-04-21T00:39:15.759Z,60.16
2019-04-21T00:40:17.952Z,59.90
2019-04-21T00:42:16.847Z,60.01
2019-04-21T00:43:08.962Z,60.52
2019-04-21T00:44:10.968Z,60.86
2019-04-21T00:45:07.917Z,61.91
2019-04-21T00:46:04.844Z,61.76
2019-04-21T00:47:08.514Z,61.40
2019-04-21T00:48:20.634Z,61.89
2019-04-21T00:49:10.893Z,61.96
2019-04-21T00:50:19.051Z,61.90
2019-04-21T00:51:16.873Z,61.70
2019-04-21T00:52:28.870Z,62.85
2019-04-21T00:53:05.541Z,62.52
2019-04-21T00:54:13.321Z,62.70
2019-04-21T00:55:30.919Z,62.75
2019-04-21T00:56:09.002Z,61.93
2019-04-21T00:57:17.984Z,61.72
2019-04-21T00:58:13.097Z,61.82
2019-04-21T00:59:20.033Z,61.39
2019-04-21T01:00:18.793Z,61.57
2019-04-21T01:01:16.158Z,60.99
2019-04-21T01:02:09.127Z,61.57
2019-04-21T01:03:20.633Z,61.45
2019-04-21T01:04:09.713Z,61.71
2019-04-21T01:05:11.249Z,62.20
2019-04-21T01:06:21.247Z,61.95
2019-04-21T01:07:12.433Z,61.44
2019-04-21T01:08:09.965Z,62.42
2019-04-21T01:09:16.510Z,61.75
2019-04-21T01:10:05.218Z,61.92
2019-04-21T01:11:18.883Z,62.07
2019-04-21T01:12:12.618Z,61.56
2019-04-21T01:13:23.126Z,62.14
2019-04-21T01:14:27.917Z,62.15
2019-04-21T01:15:16.402Z,62.34
2019-04-21T01:16:13.812Z,62.26
2019-04-21T01:17:18.678Z,62.52
2019-04-21T01:18:16.899Z,62.55
2019-04-21T01:19:17.358Z,62.53
2019-04-21T01:20:08.184Z,62.46
2019-04-21T01:20:55.203Z,62.53
2019-04-21T01:21:55.203Z,62.68
2019-04-21T01:22:55.864Z,61.92
2019-04-21T01:24:04.864Z,62.46
2019-04-21T01:25:05.622Z,63.08
2019-04-21T01:26:06.586Z,62.66
2019-04-21T01:27:04.750Z,62.31
2019-04-21T01:28:15.095Z,62.45
2019-04-21T01:29:06.672Z,62.82
2019-04-21T01:30:16.494Z,62.51
2019-04-21T01:31:13.685Z,62.87
2019-04-21T01:32:16.069Z,62.86
2019-04-21T01:33:12.431Z,62.95
2019-04-21T01:34:15.098Z,63.54
2019-04-21T01:35:15.064Z,63.38
2019-04-21T01:36:14.253Z,62.78
2019-04-21T01:37:12.783Z,63.76
2019-04-21T01:39:19.721Z,63.67
2019-04-21T01:40:26.839Z,63.35
2019-04-21T01:41:21.005Z,63.00
2019-04-21T01:42:19.083Z,63.55
2019-04-21T01:43:15.128Z,63.13
2019-04-21T01:45:11.393Z,63.16
2019-04-21T01:46:10.624Z,63.56
2019-04-21T01:47:11.728Z,64.07
2019-04-21T01:48:13.689Z,64.26
2019-04-21T01:49:10.484Z,64.54
2019-04-21T01:50:04.337Z,64.34
2019-04-21T01:51:11.530Z,64.14
2019-04-21T01:52:17.848Z,64.31
2019-04-21T01:53:22.445Z,65.25
2019-04-21T01:54:14.650Z,64.39
2019-04-21T01:55:12.319Z,64.20
2019-04-21T01:56:18.425Z,64.34
2019-04-21T01:57:12.983Z,64.28
2019-04-21T01:58:05.977Z,64.36
2019-04-21T01:59:03.490Z,63.55
2019-04-21T02:00:04.927Z,63.59
2019-04-21T02:01:08.670Z,63.54
2019-04-21T02:02:17.192Z,63.68
2019-04-21T02:03:37.481Z,63.67
2019-04-21T02:04:14.106Z,63.35
2019-04-21T02:05:17.517Z,63.59
2019-04-21T02:06:11.107Z,64.10
2019-04-21T02:07:15.051Z,64.15
2019-04-21T02:09:10.067Z,63.78
2019-04-21T02:10:11.197Z,63.46
2019-04-21T02:11:17.536Z,63.82
2019-04-21T02:12:13.444Z,64.76
2019-04-21T02:13:15.379Z,64.03
2019-04-21T02:14:17.506Z,64.25
2019-04-21T02:15:14.303Z,63.37
2019-04-21T02:17:20.360Z,63.23
2019-04-21T02:18:16.990Z,63.01
2019-04-21T02:19:12.542Z,63.48
2019-04-21T02:20:09.396Z,63.35
2019-04-21T02:21:04.401Z,63.19
2019-04-21T02:22:10.735Z,63.58
2019-04-21T02:23:26.405Z,63.52
2019-04-21T02:24:27.337Z,63.42
2019-04-21T02:25:08.319Z,63.35
2019-04-21T02:26:21.277Z,63.01
2019-04-21T02:27:19.095Z,63.65
2019-04-21T02:28:22.449Z,63.52
2019-04-21T02:29:18.875Z,63.61
2019-04-21T02:30:32.959Z,62.92
2019-04-21T02:31:29.043Z,63.29
2019-04-21T02:32:33.445Z,63.21
2019-04-21T02:33:27.869Z,63.50
2019-04-21T02:34:27.430Z,63.40
2019-04-21T02:35:33.417Z,63.43
2019-04-21T02:36:27.480Z,63.44
2019-04-21T02:37:36.713Z,64.00
2019-04-21T02:38:33.208Z,63.48
2019-04-21T02:39:35.524Z,63.66
2019-04-21T02:41:18.742Z,63.12
2019-04-21T02:43:22.906Z,63.66
2019-04-21T02:44:30.205Z,63.56
2019-04-21T02:45:20.848Z,64.44
2019-04-21T02:47:36.978Z,64.68
2019-04-21T02:48:28.592Z,64.61
2019-04-21T02:49:35.005Z,64.82
2019-04-21T02:50:22.420Z,64.97
2019-04-21T02:51:28.003Z,64.79
2019-04-21T02:52:31.010Z,64.66
2019-04-21T02:53:31.792Z,64.88
2019-04-21T02:55:22.203Z,65.44
2019-04-21T02:57:23.070Z,65.79
2019-04-21T02:58:34.644Z,65.63
2019-04-21T02:59:23.651Z,66.26
2019-04-21T03:00:19.147Z,66.83
2019-04-21T03:01:32.098Z,67.07
2019-04-21T03:02:16.402Z,67.32
2019-04-21T03:03:29.596Z,67.55
2019-04-21T03:04:30.202Z,66.98
2019-04-21T03:05:29.267Z,66.96
2019-04-21T03:06:16.801Z,66.89
2019-04-21T03:07:19.180Z,66.70
2019-04-21T03:09:19.679Z,66.68
2019-04-21T03:12:22.172Z,66.95
2019-04-21T03:13:29.728Z,67.29
2019-04-21T03:17:29.584Z,67.92
2019-04-21T03:20:25.687Z,68.67
2019-04-21T03:21:22.127Z,68.92
2019-04-21T03:23:31.856Z,69.03
2019-04-21T03:24:29.666Z,69.02
2019-04-21T03:25:37.168Z,69.75
2019-04-21T03:26:20.231Z,69.79
2019-04-21T03:27:17.283Z,70.09
2019-04-21T03:29:28.171Z,70.41
2019-04-21T03:30:45.167Z,70.53
2019-04-21T03:32:28.437Z,70.75
2019-04-21T03:34:12.215Z,71.09
2019-04-21T03:36:02.190Z,71.33
2019-04-21T03:36:47.789Z,71.43
2019-04-21T03:37:30.842Z,71.74
2019-04-21T03:38:29.290Z,71.86
2019-04-21T03:39:18.368Z,71.97
2019-04-21T03:40:22.185Z,72.09
2019-04-21T03:44:26.736Z,72.79
2019-04-21T03:45:33.043Z,73.12
2019-04-21T03:46:15.859Z,73.13
2019-04-21T03:47:32.407Z,73.15
2019-04-21T03:48:27.171Z,73.22
2019-04-21T03:49:28.875Z,72.95
2019-04-21T03:51:20.988Z,73.04
2019-04-21T03:52:37.034Z,72.92
2019-04-21T03:53:28.298Z,72.80
2019-04-21T03:54:20.236Z,72.79
2019-04-21T03:55:51.456Z,72.94
2019-04-21T03:56:44.419Z,73.03
2019-04-21T03:57:38.791Z,73.13
2019-04-21T03:59:12.272Z,73.67
2019-04-21T04:01:19.765Z,74.08
2019-04-21T04:03:49.225Z,74.51
2019-04-21T04:05:36.287Z,74.85
2019-04-21T04:06:25.753Z,74.93
2019-04-21T04:08:23.062Z,76.09
2019-04-21T04:10:14.002Z,76.57
2019-04-21T04:11:24.828Z,76.99
2019-04-21T04:13:15.692Z,77.25
2019-04-21T04:14:31.029Z,77.24
2019-04-21T04:15:31.153Z,77.63
2019-04-21T04:18:42.761Z,77.45
2019-04-21T04:20:28.311Z,76.60
2019-04-21T04:22:31.452Z,76.53
2019-04-21T04:24:30.201Z,76.14
2019-04-21T04:26:13.075Z,76.28
2019-04-21T04:27:49.212Z,76.35
2019-04-21T04:28:28.150Z,76.63
2019-04-21T04:31:33.418Z,76.82
2019-04-21T04:36:33.931Z,77.37
2019-04-21T04:39:43.033Z,79.92
2019-04-21T04:41:34.985Z,78.77
2019-04-21T04:42:35.047Z,77.92
2019-04-21T04:43:25.057Z,77.35
2019-04-21T04:44:42.286Z,77.66
2019-04-21T04:45:30.717Z,77.27
2019-04-21T04:46:28.562Z,76.90
2019-04-21T04:47:20.478Z,76.64
2019-04-21T04:48:11.471Z,76.71
2019-04-21T04:49:40.111Z,76.85
2019-04-21T04:50:35.922Z,76.46
2019-04-21T04:51:36.491Z,76.46
2019-04-21T04:53:32.827Z,76.13
2019-04-21T04:55:26.313Z,76.05
2019-04-21T04:56:31.113Z,75.88
2019-04-21T04:57:34.255Z,75.99
2019-04-21T04:58:29.600Z,75.89
2019-04-21T04:59:33.696Z,75.72
2019-04-21T05:00:18.129Z,75.44
2019-04-21T05:01:32.710Z,75.21
2019-04-21T05:02:20.358Z,74.77
2019-04-21T05:03:15.592Z,74.41
2019-04-21T05:04:16.341Z,74.05
2019-04-21T05:07:33.727Z,72.96
2019-04-21T05:08:36.449Z,72.67
2019-04-21T05:09:21.620Z,72.62
2019-04-21T05:10:22.323Z,72.64
2019-04-21T05:12:16.329Z,72.77
2019-04-21T05:13:29.263Z,72.34
2019-04-21T05:14:25.153Z,72.74
2019-04-21T05:15:19.305Z,72.54
2019-04-21T05:16:36.375Z,72.43
2019-04-21T05:17:31.153Z,72.62
2019-04-21T05:18:24.420Z,71.82
2019-04-21T05:19:20.916Z,71.80
2019-04-21T05:20:23.764Z,71.17
2019-04-21T05:21:30.203Z,71.41
2019-04-21T05:22:21.920Z,70.86
2019-04-21T05:23:15.222Z,70.68
2019-04-21T05:24:13.664Z,70.29
2019-04-21T05:25:11.005Z,69.68
2019-04-21T05:26:09.871Z,69.39
2019-04-21T05:27:12.645Z,68.99
2019-04-21T05:28:08.944Z,68.48
2019-04-21T05:29:05.274Z,68.37
2019-04-21T05:30:17.812Z,67.59
2019-04-21T05:32:14.077Z,67.06
2019-04-21T05:33:20.497Z,66.88
2019-04-21T05:34:18.987Z,65.87
2019-04-21T05:35:08.218Z,66.03
2019-04-21T05:36:16.873Z,66.34
2019-04-21T05:37:14.265Z,66.32
2019-04-21T05:38:12.803Z,66.66
2019-04-21T05:39:10.773Z,66.21
2019-04-21T05:40:10.600Z,65.72
2019-04-21T05:41:06.573Z,66.16
2019-04-21T05:42:07.828Z,65.27
2019-04-21T05:44:19.355Z,65.43
2019-04-21T05:45:21.102Z,65.22
2019-04-21T05:46:21.353Z,64.29
2019-04-21T05:49:09.369Z,63.72
2019-04-21T05:50:11.612Z,63.74
2019-04-21T05:51:10.639Z,63.95
2019-04-21T05:52:03.793Z,63.31
2019-04-21T05:53:24.293Z,62.50
2019-04-21T05:54:22.915Z,62.65
2019-04-21T05:55:18.074Z,63.19
2019-04-21T05:56:16.236Z,61.85
2019-04-21T05:57:10.234Z,62.21
2019-04-21T05:58:11.603Z,62.40
2019-04-21T05:59:12.082Z,62.62
2019-04-21T06:00:20.057Z,62.20
2019-04-21T06:01:27.580Z,61.71
2019-04-21T06:02:23.948Z,61.21
2019-04-21T06:03:19.736Z,60.07
2019-04-21T06:04:26.225Z,60.03
2019-04-21T06:05:28.583Z,57.89
2019-04-21T06:06:22.008Z,58.37
2019-04-21T06:07:21.625Z,58.36
2019-04-21T06:08:19.364Z,58.24
2019-04-21T06:09:14.609Z,58.41
2019-04-21T06:10:14.853Z,57.52
2019-04-21T06:11:20.978Z,57.79
2019-04-21T06:12:18.289Z,57.70
2019-04-21T06:13:13.448Z,57.48
2019-04-21T06:16:13.876Z,56.83
2019-04-21T06:17:25.334Z,56.14
2019-04-21T06:18:13.015Z,55.01
2019-04-21T06:19:29.390Z,54.71
2019-04-21T06:20:17.149Z,53.66
2019-04-21T06:21:16.403Z,53.31
2019-04-21T06:22:16.617Z,53.94
2019-04-21T06:23:12.071Z,54.53
2019-04-21T06:24:18.837Z,55.37
2019-04-21T06:25:40.986Z,54.88
2019-04-21T06:26:44.822Z,54.67
2019-04-21T06:27:24.777Z,54.66
2019-04-21T06:28:26.003Z,54.03
2019-04-21T06:29:18.459Z,54.23
2019-04-21T06:30:10.384Z,54.18
2019-04-21T06:31:21.602Z,53.61
2019-04-21T06:32:30.457Z,53.39
2019-04-21T06:33:15.404Z,54.18
2019-04-21T06:34:17.266Z,54.23
2019-04-21T06:36:24.159Z,53.44
2019-04-21T06:38:13.138Z,52.56
2019-04-21T06:39:17.819Z,51.81
2019-04-21T06:40:23.037Z,52.05
2019-04-21T06:41:21.354Z,51.45
2019-04-21T06:42:16.729Z,50.78
2019-04-21T06:43:25.940Z,50.16
2019-04-21T06:44:13.804Z,50.19
2019-04-21T06:45:20.440Z,50.38
2019-04-21T06:46:25.610Z,50.19
2019-04-21T06:47:23.084Z,50.31
2019-04-21T06:48:18.461Z,50.97
2019-04-21T06:49:13.349Z,50.42
2019-04-21T06:51:23.693Z,50.60
2019-04-21T06:52:41.890Z,51.34
2019-04-21T06:54:14.531Z,50.74
2019-04-21T06:56:25.463Z,50.13
2019-04-21T06:57:18.696Z,49.92
2019-04-21T06:58:18.342Z,49.54
2019-04-21T07:00:15.026Z,49.55
2019-04-21T07:01:18.918Z,49.65
2019-04-21T07:03:20.610Z,49.81
2019-04-21T07:04:25.194Z,49.76
2019-04-21T07:07:14.138Z,49.32
2019-04-21T07:08:29.383Z,48.67
2019-04-21T07:09:22.326Z,47.32
2019-04-21T07:11:15.054Z,48.48
2019-04-21T07:12:13.894Z,47.95
2019-04-21T07:13:08.263Z,47.01
2019-04-21T07:14:30.087Z,47.35
2019-04-21T07:15:19.188Z,46.17
2019-04-21T07:16:13.829Z,45.73
2019-04-21T07:17:20.303Z,45.54
2019-04-21T07:18:19.459Z,46.82
2019-04-21T07:19:22.113Z,45.75
2019-04-21T07:20:18.796Z,45.95
2019-04-21T07:21:14.327Z,46.88
2019-04-21T07:22:15.813Z,47.65
2019-04-21T07:24:22.637Z,46.61
2019-04-21T07:25:13.710Z,47.00
2019-04-21T07:26:22.239Z,46.69
2019-04-21T07:28:19.037Z,47.46
2019-04-21T07:30:13.143Z,47.63
2019-04-21T07:31:22.802Z,48.16
2019-04-21T07:32:19.134Z,47.40
2019-04-21T07:33:46.229Z,47.35
2019-04-21T07:34:25.133Z,47.87
2019-04-21T07:36:11.699Z,47.09
2019-04-21T07:37:13.906Z,46.90
2019-04-21T07:38:17.997Z,47.71
2019-04-21T07:39:15.284Z,47.09
2019-04-21T07:40:09.438Z,48.14
2019-04-21T07:41:09.199Z,47.77
2019-04-21T07:42:13.340Z,47.59
2019-04-21T07:43:10.765Z,47.42
2019-04-21T07:44:08.733Z,46.88
2019-04-21T07:45:13.028Z,46.89
2019-04-21T07:46:10.159Z,47.18
2019-04-21T07:47:15.773Z,46.44
2019-04-21T07:49:12.768Z,45.54
2019-04-21T07:50:08.756Z,46.23
2019-04-21T07:51:20.697Z,46.32
2019-04-21T07:52:18.729Z,46.21
2019-04-21T07:53:23.918Z,45.77
2019-04-21T07:54:13.836Z,45.91
2019-04-21T07:56:06.277Z,44.38
2019-04-21T07:57:06.688Z,45.07
2019-04-21T07:58:14.592Z,44.34
2019-04-21T07:59:12.734Z,44.23
2019-04-21T08:00:20.607Z,44.67
2019-04-21T08:01:18.252Z,44.70
2019-04-21T08:02:16.982Z,45.20
2019-04-21T08:03:13.842Z,44.14
2019-04-21T08:04:24.283Z,44.86
2019-04-21T08:05:17.313Z,44.85
2019-04-21T08:06:22.348Z,43.95
2019-04-21T08:08:11.379Z,42.53
2019-04-21T08:09:12.577Z,41.74
2019-04-21T08:10:16.031Z,43.00
2019-04-21T08:11:12.229Z,42.42
2019-04-21T08:12:09.539Z,43.13
2019-04-21T08:13:22.041Z,42.96
2019-04-21T08:14:17.000Z,44.02
2019-04-21T08:15:15.671Z,43.92
2019-04-21T08:16:25.665Z,43.61
2019-04-21T08:17:10.997Z,42.82
2019-04-21T08:18:11.771Z,43.25
2019-04-21T08:19:15.654Z,42.64
2019-04-21T08:20:13.951Z,42.55
2019-04-21T08:21:19.531Z,42.49
2019-04-21T08:22:15.703Z,42.75
2019-04-21T08:24:14.488Z,42.22
2019-04-21T08:25:14.899Z,42.48
2019-04-21T08:26:16.611Z,42.45
2019-04-21T08:27:18.872Z,43.08
2019-04-21T08:28:08.948Z,42.56
2019-04-21T08:29:21.204Z,42.24
2019-04-21T08:30:21.517Z,42.37
2019-04-21T08:31:23.633Z,41.78
2019-04-21T08:32:14.496Z,40.55
2019-04-21T08:33:26.262Z,39.99
2019-04-21T08:34:17.829Z,40.12
2019-04-21T08:36:28.183Z,39.19
2019-04-21T08:37:18.235Z,39.27
2019-04-21T08:39:13.399Z,39.03
2019-04-21T08:40:21.363Z,38.44
2019-04-21T08:41:13.674Z,38.93
2019-04-21T08:42:19.816Z,39.15
2019-04-21T08:43:21.148Z,39.07
2019-04-21T08:44:20.566Z,39.91
2019-04-21T08:46:15.223Z,39.74
2019-04-21T08:47:20.318Z,39.40
2019-04-21T08:48:12.428Z,40.04
2019-04-21T08:49:15.810Z,39.76
2019-04-21T08:51:27.590Z,39.31
2019-04-21T08:52:21.260Z,38.85
2019-04-21T08:53:13.937Z,38.88
2019-04-21T08:54:18.378Z,38.63
2019-04-21T08:55:20.298Z,36.86
2019-04-21T08:56:16.425Z,37.70
2019-04-21T08:57:20.105Z,38.09
2019-04-21T08:58:15.445Z,37.67
2019-04-21T08:59:19.229Z,37.85
2019-04-21T09:00:19.797Z,38.14
2019-04-21T09:01:17.583Z,38.50
2019-04-21T09:03:17.761Z,37.03
2019-04-21T09:04:13.298Z,37.70
2019-04-21T09:05:15.844Z,37.02
2019-04-21T09:06:13.839Z,36.50
2019-04-21T09:07:16.209Z,35.97
2019-04-21T09:08:13.775Z,36.42
2019-04-21T09:09:20.024Z,35.18
2019-04-21T09:10:09.471Z,35.79
2019-04-21T09:11:12.831Z,34.62
2019-04-21T09:12:17.610Z,35.55
2019-04-21T09:13:15.275Z,36.28
2019-04-21T09:14:13.724Z,35.75
2019-04-21T09:15:13.979Z,36.38
2019-04-21T09:16:09.723Z,36.84
2019-04-21T09:17:12.102Z,37.89
2019-04-21T09:18:11.473Z,37.96
2019-04-21T09:19:20.167Z,36.33
2019-04-21T09:20:16.970Z,36.11
2019-04-21T09:21:13.558Z,35.01
2019-04-21T09:22:12.835Z,35.51
2019-04-21T09:23:15.432Z,35.18
2019-04-21T09:24:16.708Z,35.02
2019-04-21T09:25:21.164Z,34.60
2019-04-21T09:26:13.846Z,34.29
2019-04-21T09:27:10.179Z,33.53
2019-04-21T09:28:12.618Z,33.56
2019-04-21T09:29:05.661Z,34.71
2019-04-21T09:30:00.309Z,35.51
2019-04-21T09:30:58.477Z,33.51
2019-04-21T09:31:59.141Z,33.73
2019-04-21T09:32:56.860Z,33.57
2019-04-21T09:34:00.306Z,33.88
2019-04-21T09:34:55.800Z,33.08
2019-04-21T09:35:59.662Z,32.91
2019-04-21T09:37:12.744Z,32.91
2019-04-21T09:38:02.181Z,33.91
2019-04-21T09:39:00.081Z,34.10
2019-04-21T09:39:57.407Z,34.04
2019-04-21T09:40:56.207Z,34.05
2019-04-21T09:41:57.691Z,32.87
2019-04-21T09:42:59.282Z,33.70
2019-04-21T09:43:57.225Z,34.67
2019-04-21T09:45:00.878Z,31.72
2019-04-21T09:45:56.679Z,32.44
2019-04-21T09:46:58.532Z,33.39
2019-04-21T09:48:02.657Z,34.13
2019-04-21T09:48:59.261Z,33.44
2019-04-21T09:49:56.298Z,32.72
2019-04-21T09:50:55.285Z,31.66
2019-04-21T09:51:55.671Z,32.26
2019-04-21T09:52:59.761Z,29.06
2019-04-21T09:54:00.933Z,29.84
2019-04-21T09:55:04.178Z,30.81
2019-04-21T09:56:01.060Z,29.95
2019-04-21T09:57:00.275Z,30.73
2019-04-21T09:57:57.586Z,32.08
2019-04-21T09:59:07.253Z,29.12
2019-04-21T10:00:04.120Z,27.66
2019-04-21T10:01:06.241Z,28.20
2019-04-21T10:02:06.480Z,28.31
2019-04-21T10:03:02.919Z,29.29
2019-04-21T10:03:59.777Z,29.10
2019-04-21T10:04:57.289Z,28.57
2019-04-21T10:05:56.278Z,28.60
2019-04-21T10:06:56.266Z,28.15
2019-04-21T10:07:55.817Z,29.38
2019-04-21T10:08:58.331Z,27.64
2019-04-21T10:09:55.719Z,28.15
2019-04-21T10:10:56.903Z,27.67
2019-04-21T10:11:57.029Z,28.21
2019-04-21T10:12:56.287Z,27.27
2019-04-21T10:13:55.757Z,26.51
2019-04-21T10:14:55.298Z,27.37
2019-04-21T10:15:56.341Z,28.35
2019-04-21T10:16:58.098Z,27.20
2019-04-21T10:17:56.196Z,26.58
2019-04-21T10:18:56.731Z,27.00
2019-04-21T10:19:55.189Z,27.19
2019-04-21T10:20:56.951Z,26.77
2019-04-21T10:21:56.555Z,27.79
2019-04-21T10:22:55.620Z,28.63
2019-04-21T10:23:55.731Z,28.28
2019-04-21T10:24:56.394Z,28.78
2019-04-21T10:25:56.715Z,28.15
2019-04-21T10:26:55.657Z,28.20
2019-04-21T10:27:56.971Z,27.22
2019-04-21T10:28:58.693Z,26.90
2019-04-21T10:29:59.047Z,25.85
2019-04-21T10:30:56.490Z,26.47
2019-04-21T10:31:55.680Z,26.64
2019-04-21T10:32:56.523Z,27.41
2019-04-21T10:33:55.821Z,27.88
2019-04-21T10:34:55.503Z,27.33
2019-04-21T10:35:56.841Z,27.93
2019-04-21T10:36:55.722Z,27.94
2019-04-21T10:38:06.783Z,28.10
2019-04-21T10:38:57.110Z,26.81
2019-04-21T10:39:55.842Z,27.35
2019-04-21T10:40:57.030Z,27.73
2019-04-21T10:41:55.749Z,27.70
2019-04-21T10:42:58.324Z,27.12
2019-04-21T10:43:55.676Z,27.39
2019-04-21T10:44:56.877Z,25.95
2019-04-21T10:45:56.977Z,25.57
2019-04-21T10:46:56.029Z,26.15
2019-04-21T10:47:56.830Z,26.38
2019-04-21T10:48:56.798Z,26.54
2019-04-21T10:49:55.808Z,25.21
2019-04-21T10:50:55.417Z,25.72
2019-04-21T10:51:55.618Z,25.62
2019-04-21T10:52:55.519Z,25.97
2019-04-21T10:53:56.055Z,25.70
2019-04-21T10:55:15.620Z,25.42
2019-04-21T10:56:06.123Z,25.84
2019-04-21T10:56:56.571Z,25.22
2019-04-21T10:57:55.956Z,26.01
2019-04-21T10:58:56.210Z,26.35
2019-04-21T10:59:57.630Z,27.68
2019-04-21T11:00:55.807Z,27.06
2019-04-21T11:01:56.811Z,25.91
2019-04-21T11:02:56.868Z,25.23
2019-04-21T11:03:55.812Z,24.82
2019-04-21T11:04:56.702Z,25.72
2019-04-21T11:05:56.707Z,24.53
2019-04-21T11:06:59.441Z,25.68
2019-04-21T11:08:56.104Z,24.16
2019-04-21T11:09:56.099Z,24.42
2019-04-21T11:10:56.033Z,24.59
2019-04-21T11:11:55.868Z,24.24
2019-04-21T11:12:56.828Z,23.72
2019-04-21T11:13:56.663Z,23.15
2019-04-21T11:14:56.813Z,22.61
2019-04-21T11:15:55.390Z,23.02
2019-04-21T11:16:56.521Z,22.54
2019-04-21T11:17:56.005Z,23.16
2019-04-21T11:18:56.019Z,21.90
2019-04-21T11:19:57.031Z,21.96
2019-04-21T11:20:55.835Z,22.79
2019-04-21T11:21:56.849Z,23.01
2019-04-21T11:22:57.445Z,22.69
2019-04-21T11:23:56.540Z,21.82
2019-04-21T11:24:56.686Z,22.54
2019-04-21T11:25:55.790Z,22.98
2019-04-21T11:26:55.936Z,21.92
2019-04-21T11:27:56.012Z,22.66
2019-04-21T11:28:56.730Z,22.67
2019-04-21T11:29:55.778Z,22.69
2019-04-21T11:30:54.880Z,23.11
2019-04-21T11:31:56.903Z,23.10
2019-04-21T11:32:57.116Z,22.61
2019-04-21T11:33:57.452Z,23.58
2019-04-21T11:34:56.949Z,22.84
2019-04-21T11:35:57.306Z,23.74
2019-04-21T11:36:56.333Z,22.44
2019-04-21T11:38:04.630Z,22.43
2019-04-21T11:39:09.457Z,22.70
2019-04-21T11:40:00.160Z,22.54
2019-04-21T11:40:56.004Z,23.03
2019-04-21T11:41:57.448Z,23.65
2019-04-21T11:42:55.935Z,22.98
2019-04-21T11:43:57.104Z,23.63
2019-04-21T11:44:55.908Z,23.45
2019-04-21T11:45:55.823Z,24.14
2019-04-21T11:46:56.398Z,22.46
2019-04-21T11:47:56.438Z,23.40
2019-04-21T11:48:55.444Z,23.32
2019-04-21T11:49:56.997Z,22.86
2019-04-21T11:50:57.133Z,22.03
2019-04-21T11:51:56.549Z,22.77
2019-04-21T11:52:56.877Z,22.26
2019-04-21T11:53:56.930Z,22.31
2019-04-21T11:54:56.095Z,22.31
2019-04-21T11:55:57.006Z,22.29
2019-04-21T11:56:56.947Z,22.25
2019-04-21T11:57:56.454Z,22.48
2019-04-21T11:58:55.798Z,22.77
2019-04-21T11:59:55.642Z,22.58
2019-04-21T12:00:55.930Z,21.77
2019-04-21T12:01:57.258Z,22.75
2019-04-21T12:02:55.621Z,22.17
2019-04-21T12:03:55.734Z,22.83
2019-04-21T12:04:55.331Z,22.94
2019-04-21T12:05:55.747Z,23.74
2019-04-21T12:06:56.005Z,24.27
2019-04-21T12:07:58.388Z,23.20
2019-04-21T12:08:59.344Z,24.05
2019-04-21T12:09:55.579Z,24.59
2019-04-21T12:10:55.782Z,24.53
2019-04-21T12:11:57.025Z,24.41
2019-04-21T12:12:55.690Z,25.20
2019-04-21T12:13:56.246Z,23.25
2019-04-21T12:14:59.826Z,23.15
2019-04-21T12:15:57.125Z,23.86
2019-04-21T12:16:57.092Z,24.83
2019-04-21T12:17:56.451Z,24.18
2019-04-21T12:18:56.786Z,22.87
2019-04-21T12:19:56.937Z,22.79
2019-04-21T12:20:55.860Z,22.34
2019-04-21T12:22:05.361Z,22.47
2019-04-21T12:22:56.994Z,23.23
2019-04-21T12:23:56.521Z,22.92
2019-04-21T12:24:57.420Z,22.63
2019-04-21T12:25:56.952Z,22.65
2019-04-21T12:26:56.130Z,23.01
2019-04-21T12:27:56.174Z,22.30
2019-04-21T12:28:56.129Z,22.40
2019-04-21T12:29:55.946Z,23.36
2019-04-21T12:30:56.065Z,23.23
2019-04-21T12:31:57.239Z,24.42
2019-04-21T12:32:56.193Z,24.40
2019-04-21T12:33:56.174Z,24.79
2019-04-21T12:34:57.708Z,23.59
2019-04-21T12:35:56.107Z,23.56
2019-04-21T12:36:56.947Z,23.51
2019-04-21T12:37:56.413Z,22.72
2019-04-21T12:38:59.725Z,22.49
2019-04-21T12:39:56.857Z,21.74
2019-04-21T12:40:56.925Z,22.62
2019-04-21T12:41:56.420Z,23.41
2019-04-21T12:42:56.811Z,24.31
2019-04-21T12:43:56.960Z,24.72
2019-04-21T12:44:57.133Z,24.26
2019-04-21T12:45:55.951Z,25.13
2019-04-21T12:46:56.129Z,24.18
2019-04-21T12:47:55.969Z,24.49
2019-04-21T12:48:55.966Z,24.63
2019-04-21T12:49:56.994Z,24.27
2019-04-21T12:50:57.464Z,24.23
2019-04-21T12:51:55.989Z,23.72
2019-04-21T12:52:56.161Z,24.71
2019-04-21T12:53:57.467Z,24.69
2019-04-21T12:54:56.068Z,24.87
2019-04-21T12:55:57.878Z,24.63
2019-04-21T12:56:56.123Z,24.65
2019-04-21T12:57:57.231Z,24.56
2019-04-21T12:58:57.539Z,24.49
2019-04-21T12:59:57.048Z,24.44
2019-04-21T13:00:56.726Z,24.37
2019-04-21T13:01:56.884Z,24.01
2019-04-21T13:02:56.159Z,24.89
2019-04-21T13:03:55.872Z,24.90
2019-04-21T13:04:55.979Z,24.96
2019-04-21T13:05:56.083Z,24.96
2019-04-21T13:06:55.793Z,24.65
2019-04-21T13:07:55.587Z,24.61
2019-04-21T13:09:02.994Z,24.29
2019-04-21T13:09:58.370Z,24.06
2019-04-21T13:10:56.256Z,23.37
2019-04-21T13:11:56.972Z,23.68
2019-04-21T13:12:56.433Z,23.14
2019-04-21T13:13:56.238Z,23.33
2019-04-21T13:14:57.425Z,23.35
2019-04-21T13:15:57.592Z,24.00
2019-04-21T13:16:57.343Z,24.44
2019-04-21T13:17:56.321Z,23.88
2019-04-21T13:18:57.513Z,23.66
2019-04-21T13:19:56.981Z,24.15
2019-04-21T13:20:57.847Z,24.38
2019-04-21T13:21:56.137Z,24.36
2019-04-21T13:22:56.106Z,24.43
2019-04-21T13:23:56.807Z,24.25
2019-04-21T13:24:56.014Z,23.83
2019-04-21T13:25:56.103Z,24.77
2019-04-21T13:26:58.508Z,23.97
2019-04-21T13:27:54.797Z,24.42
2019-04-21T13:28:58.409Z,23.88
2019-04-21T13:29:56.590Z,24.42
2019-04-21T13:30:56.375Z,24.08
2019-04-21T13:31:56.286Z,24.16
2019-04-21T13:32:58.533Z,24.59
2019-04-21T13:33:55.787Z,24.28
2019-04-21T13:34:57.037Z,24.08
2019-04-21T13:35:57.226Z,23.97
2019-04-21T13:36:57.244Z,23.91
2019-04-21T13:37:56.355Z,24.64
2019-04-21T13:39:14.599Z,24.37
2019-04-21T13:40:21.080Z,23.76
2019-04-21T13:41:12.260Z,23.63
2019-04-21T13:42:06.624Z,23.55
2019-04-21T13:42:58.858Z,24.08
2019-04-21T13:43:56.963Z,24.58
2019-04-21T13:44:57.985Z,24.06
2019-04-21T13:45:57.902Z,24.24
2019-04-21T13:46:56.557Z,24.20
2019-04-21T13:47:56.720Z,24.56
2019-04-21T13:48:56.089Z,24.91
2019-04-21T13:49:57.880Z,25.29
2019-04-21T13:50:55.493Z,24.06
2019-04-21T13:51:56.190Z,24.72
2019-04-21T13:52:56.558Z,23.94
2019-04-21T13:53:55.616Z,24.16
2019-04-21T13:54:56.136Z,23.44
2019-04-21T13:55:56.650Z,24.03
2019-04-21T13:56:56.536Z,24.40
2019-04-21T13:57:56.793Z,24.81
2019-04-21T13:58:56.039Z,24.03
2019-04-21T13:59:57.191Z,24.02
2019-04-21T14:00:56.145Z,24.62
2019-04-21T14:01:55.994Z,24.79
2019-04-21T14:02:56.510Z,24.51
2019-04-21T14:03:55.896Z,23.78
2019-04-21T14:04:56.204Z,24.20
2019-04-21T14:05:56.362Z,24.05
2019-04-21T14:06:56.416Z,23.52
2019-04-21T14:07:57.907Z,23.92
2019-04-21T14:08:56.998Z,24.41
2019-04-21T14:10:00.777Z,24.04
2019-04-21T14:10:55.845Z,24.71
2019-04-21T14:11:59.060Z,25.21
2019-04-21T14:12:56.316Z,25.31
2019-04-21T14:13:56.481Z,24.26
2019-04-21T14:14:56.587Z,25.15
2019-04-21T14:15:55.954Z,24.59
2019-04-21T14:16:56.234Z,24.31
2019-04-21T14:17:56.905Z,23.83